Time;durP1;ratioP1;P1;durP2;ratioP2;P2;SDS_P1;SDS_P2;PMS_P1;PMS_P2;Temp;Humidity;BMP_temperature;BMP_pressure;BME280_temperature;BME280_humidity;BME280_pressure;Samples;Min_cycle;Max_cycle;Signal;HPM_P1;HPM_P2
2022/06/01 00:02:09;;;;;;;2.63;2.30;;;;;;;15.06;94.14;100041.41;5003918;28;20187;-75
2022/06/01 00:04:35;;;;;;;2.97;2.67;;;;;;;15.01;94.39;100035.47;5006695;28;20199;-75
2022/06/01 00:07:01;;;;;;;3.43;2.20;;;;;;;14.97;94.45;100039.09;5004978;28;20769;-74
2022/06/01 00:09:26;;;;;;;2.53;2.20;;;;;;;14.89;94.25;100039.34;5003744;28;20204;-76
2022/06/01 00:11:52;;;;;;;2.90;2.70;;;;;;;14.82;93.98;100043.00;5003209;28;20228;-75
2022/06/01 00:14:18;;;;;;;3.10;2.17;;;;;;;14.78;94.20;100044.00;5003551;28;20651;-76
2022/06/01 00:16:43;;;;;;;2.57;2.30;;;;;;;14.75;94.10;100044.94;5004244;28;20187;-76
2022/06/01 00:19:11;;;;;;;2.57;2.20;;;;;;;14.73;93.91;100038.09;5001038;28;20218;-75
2022/06/01 00:22:11;;;;;;;2.30;2.10;;;;;;;14.70;94.06;100044.22;5003763;28;20884;-75
2022/06/01 00:24:22;;;;;;;2.57;2.37;;;;;;;14.68;94.39;100051.22;5005181;28;20189;-76
2022/06/01 00:26:50;;;;;;;2.70;2.40;;;;;;;14.67;94.58;100038.22;5000170;28;20596;-75
2022/06/01 00:29:17;;;;;;;2.60;2.40;;;;;;;14.65;94.90;100046.09;4999639;28;20246;-75
2022/06/01 00:31:43;;;;;;;2.77;2.57;;;;;;;14.60;95.02;100038.41;5006161;28;20191;-76
2022/06/01 00:34:08;;;;;;;2.63;2.23;;;;;;;14.59;95.65;100039.31;5000712;28;20197;-76
2022/06/01 00:36:33;;;;;;;3.40;2.67;;;;;;;14.57;95.95;100038.50;5002480;28;20218;-76
2022/06/01 00:38:59;;;;;;;2.93;2.57;;;;;;;14.54;96.21;100043.81;5003325;28;20206;-76
2022/06/01 00:41:24;;;;;;;2.80;2.60;;;;;;;14.50;96.51;100042.19;5003443;28;20275;-76
2022/06/01 00:43:50;;;;;;;3.50;2.70;;;;;;;14.48;96.90;100049.19;5004165;28;20206;-76
2022/06/01 00:46:16;;;;;;;2.73;2.53;;;;;;;14.44;97.25;100045.81;5004291;28;20195;-75
2022/06/01 00:48:49;;;;;;;2.80;2.60;;;;;;;14.41;97.93;100055.47;5001078;28;20194;-75
2022/06/01 00:51:19;;;;;;;3.03;2.83;;;;;;;14.38;98.28;100043.38;5001831;28;20611;-75
2022/06/01 00:53:45;;;;;;;3.30;3.00;;;;;;;14.37;98.39;100044.28;5004851;28;20578;-75
2022/06/01 00:56:20;;;;;;;2.70;2.50;;;;;;;14.35;98.45;100042.63;5002715;28;20198;-75
2022/06/01 00:58:49;;;;;;;3.60;2.77;;;;;;;14.31;98.56;100039.25;5003367;28;20677;-76
2022/06/01 01:01:18;;;;;;;4.07;2.83;;;;;;;14.27;98.90;100043.72;5003698;28;20219;-75
2022/06/01 01:03:49;;;;;;;2.80;2.60;;;;;;;14.23;98.85;100036.88;5005232;28;20191;-75
2022/06/01 01:06:27;;;;;;;2.60;2.40;;;;;;;14.17;99.13;100037.03;5003721;28;20207;-75
2022/06/01 01:08:54;;;;;;;3.43;2.50;;;;;;;14.11;99.24;100037.22;5003765;28;20214;-75
2022/06/01 01:11:29;;;;;;;2.70;2.50;;;;;;;14.06;99.48;100031.28;5005468;28;20195;-76
2022/06/01 01:13:57;;;;;;;2.60;2.40;;;;;;;14.00;99.53;100029.72;5004427;28;20270;-75
2022/06/01 01:16:24;;;;;;;2.60;2.40;;;;;;;13.97;99.84;100032.38;5006068;28;20748;-75
2022/06/01 01:18:51;;;;;;;2.70;2.50;;;;;;;13.94;99.74;100030.72;5003353;28;20200;-75
2022/06/01 01:21:57;;;;;;;3.27;2.30;;;;;;;13.90;100.00;100026.50;5010624;28;20214;-75
2022/06/01 01:24:44;;;;;;;2.83;2.60;;;;;;;13.83;100.00;100033.63;5004647;28;20187;-76
2022/06/01 01:27:10;;;;;;;3.93;2.80;;;;;;;13.82;100.00;100038.88;5011949;28;20202;-75
2022/06/01 01:29:38;;;;;;;2.80;2.53;;;;;;;13.83;100.00;100035.38;5002124;28;20226;-76
2022/06/01 01:32:06;;;;;;;2.70;2.50;;;;;;;13.86;100.00;100032.66;5002803;28;20276;-75
2022/06/01 01:34:36;;;;;;;3.97;2.50;;;;;;;13.88;100.00;100038.69;4998682;28;20246;-76
2022/06/01 01:37:05;;;;;;;2.70;2.50;;;;;;;13.87;99.52;100035.25;4994461;28;20182;-76
2022/06/01 01:39:33;;;;;;;2.50;2.30;;;;;;;13.81;99.69;100031.97;5001180;28;20228;-76
2022/06/01 01:42:00;;;;;;;2.53;2.30;;;;;;;13.72;99.19;100036.50;5003047;28;20213;-76
2022/06/01 01:44:49;;;;;;;2.97;2.77;;;;;;;13.66;99.61;100048.81;5005088;28;20262;-76
2022/06/01 01:47:14;;;;;;;3.07;2.80;;;;;;;13.55;99.90;100044.75;5002796;28;20231;-76
2022/06/01 01:49:41;;;;;;;3.07;2.83;;;;;;;13.46;100.00;100034.56;5012547;28;20209;-74
2022/06/01 01:52:10;;;;;;;3.60;2.90;;;;;;;13.39;100.00;100039.00;5014189;28;20540;-75
2022/06/01 01:54:58;;;;;;;3.30;3.00;;;;;;;13.30;100.00;100034.06;4999702;28;20388;-76
2022/06/01 01:57:46;;;;;;;3.67;3.20;;;;;;;13.23;100.00;100038.56;5021676;28;20188;-75
2022/06/01 02:00:36;;;;;;;4.20;2.97;;;;;;;13.11;100.00;100033.66;5008194;28;20208;-76
2022/06/01 02:03:29;;;;;;;3.43;3.00;;;;;;;13.02;100.00;100033.84;5023077;28;20189;-77
2022/06/01 02:06:25;;;;;;;3.33;3.03;;;;;;;12.92;100.00;100034.06;5006692;28;20602;-77
2022/06/01 02:09:07;;;;;;;3.00;2.50;;;;;;;12.81;100.00;100039.50;5006159;28;20216;-75
2022/06/01 02:14:32;;;;;;;2.90;2.70;;;;;;;12.67;100.00;100038.94;5009261;28;20195;-76
2022/06/01 02:17:01;;;;;;;2.73;2.53;;;;;;;12.64;100.00;100041.59;5005218;28;20180;-76
2022/06/01 02:19:36;;;;;;;3.30;3.00;;;;;;;12.58;100.00;100034.81;5010897;28;20196;-75
2022/06/01 02:22:03;;;;;;;3.00;2.80;;;;;;;12.54;100.00;100037.50;5006496;28;20188;-74
2022/06/01 02:24:30;;;;;;;3.40;2.73;;;;;;;12.47;100.00;100035.06;5001666;28;20193;-76
2022/06/01 02:26:56;;;;;;;3.30;3.03;;;;;;;12.42;100.00;100038.59;5005632;28;20232;-75
2022/06/01 02:29:30;;;;;;;3.40;2.80;;;;;;;12.36;100.00;100039.59;5007227;28;20700;-75
2022/06/01 02:31:58;;;;;;;3.20;3.00;;;;;;;12.31;100.00;100033.66;5008017;28;20263;-75
2022/06/01 02:34:24;;;;;;;3.10;2.83;;;;;;;12.26;100.00;100041.50;5010437;28;20191;-76
2022/06/01 02:36:51;;;;;;;3.03;2.83;;;;;;;12.25;100.00;100042.38;5006056;28;20176;-75
2022/06/01 02:39:18;;;;;;;3.33;2.63;;;;;;;12.24;100.00;100037.25;5004715;28;20338;-75
2022/06/01 02:44:27;;;;;;;2.97;2.77;;;;;;;12.11;100.00;100032.31;5005506;28;20687;-75
2022/06/01 02:46:53;;;;;;;2.77;2.57;;;;;;;12.09;100.00;100041.00;5007567;28;20205;-76
2022/06/01 02:49:18;;;;;;;3.33;2.60;;;;;;;12.07;100.00;100038.44;5007181;28;20205;-75
2022/06/01 02:51:47;;;;;;;2.77;2.57;;;;;;;12.06;100.00;100039.31;5006059;28;20174;-75
2022/06/01 02:54:12;;;;;;;2.87;2.67;;;;;;;12.08;100.00;100041.88;5006157;28;20331;-74
2022/06/01 02:56:38;;;;;;;2.43;2.23;;;;;;;12.11;100.00;100041.81;5006187;28;20664;-74
2022/06/01 02:59:04;;;;;;;3.17;2.90;;;;;;;12.14;100.00;100037.44;5001743;28;20192;-74
2022/06/01 03:01:30;;;;;;;3.87;2.90;;;;;;;12.17;100.00;100033.91;5001069;28;20177;-75
2022/06/01 03:03:55;;;;;;;2.60;2.40;;;;;;;12.16;100.00;100033.06;5003631;28;20675;-75
2022/06/01 03:06:21;;;;;;;2.70;2.50;;;;;;;12.15;100.00;100038.28;5005797;28;20715;-75
2022/06/01 03:08:46;;;;;;;2.77;2.57;;;;;;;12.14;100.00;100036.56;5007327;28;20300;-76
2022/06/01 03:11:13;;;;;;;2.43;2.27;;;;;;;12.12;100.00;100040.94;5008489;28;20325;-75
2022/06/01 03:13:39;;;;;;;2.93;2.73;;;;;;;12.10;100.00;100040.97;5006058;28;20203;-75
2022/06/01 03:16:07;;;;;;;2.60;2.40;;;;;;;12.08;100.00;100047.06;5006562;28;20554;-75
2022/06/01 03:18:33;;;;;;;3.10;2.90;;;;;;;12.07;100.00;100043.63;5006272;28;20918;-76
2022/06/01 03:20:59;;;;;;;3.23;2.77;;;;;;;12.06;100.00;100041.91;5000725;28;20276;-74
2022/06/01 03:23:26;;;;;;;2.73;2.53;;;;;;;12.04;100.00;100044.53;5007410;28;20216;-75
2022/06/01 03:25:51;;;;;;;2.67;2.40;;;;;;;12.06;100.00;100062.66;5001380;28;20782;-76
2022/06/01 03:28:18;;;;;;;2.80;2.60;;;;;;;12.05;100.00;100050.56;5011032;28;20281;-76
2022/06/01 03:30:44;;;;;;;2.30;2.10;;;;;;;12.06;100.00;100067.00;5007742;28;20204;-76
2022/06/01 03:33:13;;;;;;;2.80;2.60;;;;;;;12.08;100.00;100057.47;5006982;28;20562;-76
2022/06/01 03:35:40;;;;;;;2.60;2.40;;;;;;;12.09;100.00;100049.63;5004268;28;20177;-76
2022/06/01 03:38:06;;;;;;;2.73;2.53;;;;;;;12.13;99.95;100060.78;5002840;28;20273;-76
2022/06/01 03:40:34;;;;;;;2.27;2.07;;;;;;;12.16;99.89;100051.25;5007684;28;20231;-75
2022/06/01 03:43:01;;;;;;;2.67;2.47;;;;;;;12.21;99.63;100058.94;5000813;28;20192;-75
2022/06/01 03:48:11;;;;;;;2.80;2.60;;;;;;;12.30;99.32;100055.31;5006628;28;20202;-76
2022/06/01 03:50:38;;;;;;;3.10;2.80;;;;;;;12.36;99.39;100057.75;5002056;28;20220;-76
2022/06/01 03:53:06;;;;;;;2.47;2.17;;;;;;;12.46;99.08;100061.03;5019962;28;20223;-76
2022/06/01 03:55:34;;;;;;;2.47;2.27;;;;;;;12.56;98.33;100056.50;5008073;28;20193;-75
2022/06/01 03:58:00;;;;;;;3.10;2.23;;;;;;;12.65;96.76;100058.88;5006243;28;20185;-76
2022/06/01 04:00:27;;;;;;;2.90;2.70;;;;;;;12.72;95.67;100064.81;5005840;28;20324;-75
2022/06/01 04:02:54;;;;;;;2.40;2.20;;;;;;;12.80;95.00;100057.72;5001633;28;20180;-77
2022/06/01 04:05:21;;;;;;;2.70;2.37;;;;;;;12.88;94.59;100060.16;5006594;28;20192;-75
2022/06/01 04:07:46;;;;;;;2.50;2.30;;;;;;;12.95;94.12;100066.91;5008137;28;20247;-75
2022/06/01 04:10:12;;;;;;;2.73;2.47;;;;;;;13.05;93.56;100072.75;5007649;28;20266;-76
2022/06/01 04:12:38;;;;;;;2.90;2.70;;;;;;;13.15;93.90;100070.78;5047552;28;20195;-75
2022/06/01 04:15:05;;;;;;;2.67;2.47;;;;;;;13.24;93.62;100070.56;5007674;28;20186;-75
2022/06/01 04:17:30;;;;;;;2.93;2.50;;;;;;;13.38;93.19;100063.34;5010992;28;20255;-76
2022/06/01 04:19:56;;;;;;;2.70;2.50;;;;;;;13.58;92.76;100075.00;5010999;28;20228;-76
2022/06/01 04:22:22;;;;;;;2.70;2.50;;;;;;;13.71;92.42;100079.00;5003495;28;20194;-75
2022/06/01 04:24:47;;;;;;;2.80;2.60;;;;;;;13.91;92.56;100084.59;5010298;28;20184;-75
2022/06/01 04:27:13;;;;;;;2.90;2.70;;;;;;;14.33;91.57;100079.13;5018652;23;20213;-75
2022/06/01 04:29:39;;;;;;;2.60;2.40;;;;;;;14.80;90.58;100068.25;4986583;28;20274;-76
2022/06/01 04:32:09;;;;;;;2.40;2.10;;;;;;;14.98;88.44;100068.59;4995980;28;20198;-75
2022/06/01 04:34:35;;;;;;;4.73;2.60;;;;;;;14.87;87.84;100071.53;4986718;28;20189;-75
2022/06/01 04:37:00;;;;;;;2.60;2.40;;;;;;;14.92;88.37;100069.63;4987032;28;20180;-75
2022/06/01 04:39:26;;;;;;;2.83;2.53;;;;;;;15.98;85.80;100075.78;4988819;28;20255;-75
2022/06/01 04:41:52;;;;;;;2.60;2.13;;;;;;;17.41;81.70;100080.94;4985278;28;20240;-75
2022/06/01 04:44:17;;;;;;;2.67;2.07;;;;;;;17.87;79.39;100077.31;4986276;28;20202;-76
2022/06/01 04:46:43;;;;;;;2.30;2.10;;;;;;;17.73;78.96;100081.34;4994983;28;20210;-75
2022/06/01 04:49:09;;;;;;;2.63;2.10;;;;;;;17.33;78.75;100077.78;4989675;28;20217;-77
2022/06/01 04:51:38;;;;;;;2.70;2.13;;;;;;;17.25;78.59;100075.47;4990817;28;20264;-75
2022/06/01 04:54:09;;;;;;;2.30;2.10;;;;;;;18.17;77.48;100064.69;4978396;28;20211;-76
2022/06/01 04:56:35;;;;;;;2.27;2.07;;;;;;;19.03;75.87;100064.31;4980312;28;20189;-75
2022/06/01 04:59:01;;;;;;;2.00;1.80;;;;;;;18.99;76.02;100066.22;4986908;28;20779;-75
2022/06/01 05:01:26;;;;;;;2.03;1.83;;;;;;;18.56;76.75;100061.19;4985900;28;20194;-76
2022/06/01 05:03:52;;;;;;;2.10;2.00;;;;;;;18.25;77.58;100059.13;4988665;28;20188;-75
2022/06/01 05:06:17;;;;;;;2.90;2.40;;;;;;;18.62;77.71;100059.22;4987573;28;20193;-75
2022/06/01 05:08:42;;;;;;;2.87;2.20;;;;;;;20.02;75.20;100058.56;4997607;28;20296;-76
2022/06/01 05:11:08;;;;;;;2.67;2.20;;;;;;;21.17;72.91;100064.66;4992183;28;20244;-75
2022/06/01 05:13:33;;;;;;;2.97;2.40;;;;;;;22.08;71.17;100057.63;4997853;28;20180;-76
2022/06/01 05:16:01;;;;;;;2.20;2.00;;;;;;;23.23;67.72;100059.28;4984751;28;20215;-76
2022/06/01 05:18:27;;;;;;;2.30;2.10;;;;;;;24.22;65.25;100057.06;4981960;28;20199;-76
2022/06/01 05:20:54;;;;;;;5.03;2.30;;;;;;;24.99;63.28;100058.69;4988235;28;20271;-76
2022/06/01 05:23:20;;;;;;;2.13;1.70;;;;;;;25.72;62.24;100054.16;4984238;28;20812;-76
2022/06/01 05:25:47;;;;;;;2.50;1.87;;;;;;;26.52;59.33;100043.59;4990121;28;20191;-76
2022/06/01 05:28:15;;;;;;;2.30;1.80;;;;;;;27.07;57.73;100046.25;4988472;28;20201;-77
2022/06/01 05:30:41;;;;;;;2.23;1.80;;;;;;;26.89;56.77;100050.41;4991880;28;20291;-76
2022/06/01 05:33:07;;;;;;;2.67;1.80;;;;;;;25.72;58.44;100055.97;4986742;28;20242;-76
2022/06/01 05:35:33;;;;;;;2.07;1.87;;;;;;;25.94;58.39;100056.97;4988391;28;20197;-76
2022/06/01 05:37:58;;;;;;;3.47;2.10;;;;;;;26.59;57.51;100052.75;4988701;28;20246;-76
2022/06/01 05:40:25;;;;;;;2.30;2.10;;;;;;;27.28;55.83;100050.75;4988897;28;20315;-76
2022/06/01 05:42:51;;;;;;;2.00;1.80;;;;;;;27.71;55.54;100054.28;4990169;28;20189;-76
2022/06/01 05:45:17;;;;;;;1.80;1.70;;;;;;;28.31;55.09;100056.28;4982898;28;20913;-76
2022/06/01 05:47:42;;;;;;;2.17;1.97;;;;;;;28.78;54.28;100046.88;4984995;28;20279;-76
2022/06/01 05:50:08;;;;;;;2.90;1.90;;;;;;;28.87;53.46;100046.09;4985583;28;20327;-76
2022/06/01 05:52:38;;;;;;;2.63;2.20;;;;;;;29.01;52.92;100048.31;4984447;28;20215;-76
2022/06/01 05:55:06;;;;;;;2.10;1.90;;;;;;;29.15;53.22;100049.72;4986056;28;20194;-76
2022/06/01 05:57:31;;;;;;;1.67;1.57;;;;;;;29.64;52.49;100044.38;4988898;28;20184;-77
2022/06/01 05:59:56;;;;;;;2.07;1.80;;;;;;;29.90;52.16;100051.75;4990091;28;20286;-77
2022/06/01 06:02:22;;;;;;;2.63;1.70;;;;;;;30.18;52.50;100058.94;4986514;28;20216;-77
2022/06/01 06:04:47;;;;;;;2.57;1.90;;;;;;;30.47;52.15;100053.47;4986490;28;20186;-77
2022/06/01 06:07:13;;;;;;;2.20;2.00;;;;;;;30.78;52.12;100047.84;4989267;28;20289;-76
2022/06/01 06:09:38;;;;;;;2.30;1.70;;;;;;;31.11;51.82;100049.97;4984639;28;20216;-76
2022/06/01 06:12:04;;;;;;;2.73;1.90;;;;;;;31.46;51.37;100048.28;4993505;28;20338;-77
2022/06/01 06:14:30;;;;;;;2.47;1.50;;;;;;;31.77;50.95;100056.69;4994282;28;20239;-76
2022/06/01 06:16:55;;;;;;;2.97;1.70;;;;;;;32.04;50.89;100059.34;4986112;28;20193;-76
2022/06/01 06:19:21;;;;;;;2.90;1.80;;;;;;;32.17;50.96;100057.06;5004492;28;20209;-76
2022/06/01 06:21:47;;;;;;;2.13;1.97;;;;;;;32.27;50.72;100054.31;4987338;28;20641;-76
2022/06/01 06:24:16;;;;;;;2.03;1.73;;;;;;;32.44;50.64;100062.41;4989919;28;20224;-77
2022/06/01 06:26:42;;;;;;;2.63;1.65;;;;;;;32.48;50.79;100066.44;4985206;28;20241;-76
2022/06/01 06:29:10;;;;;;;1.80;1.70;;;;;;;32.51;50.98;100066.94;4988908;28;20782;-76
2022/06/01 06:31:37;;;;;;;1.98;1.77;;;;;;;32.68;50.83;100073.16;4989553;28;20215;-77
2022/06/01 06:34:04;;;;;;;2.15;1.80;;;;;;;32.79;50.77;100073.88;4988953;28;20895;-76
2022/06/01 06:36:29;;;;;;;1.95;1.70;;;;;;;32.82;50.38;100076.28;4988001;28;20188;-76
2022/06/01 06:38:55;;;;;;;3.28;1.98;;;;;;;32.79;50.60;100079.25;4987125;28;20213;-77
2022/06/01 06:41:21;;;;;;;3.63;2.10;;;;;;;32.86;50.73;100079.47;4978332;28;20719;-75
2022/06/01 06:43:47;;;;;;;2.22;2.00;;;;;;;32.89;50.69;100079.13;4985171;28;20708;-75
2022/06/01 06:46:16;;;;;;;2.75;2.17;;;;;;;32.94;51.28;100085.66;4992137;28;20212;-76
2022/06/01 06:48:43;;;;;;;5.15;2.30;;;;;;;32.92;50.83;100084.13;4987734;28;20205;-75
2022/06/01 06:51:09;;;;;;;3.28;2.40;;;;;;;32.83;51.48;100077.94;4987704;28;20599;-76
2022/06/01 06:53:35;;;;;;;3.08;2.00;;;;;;;32.90;51.36;100070.09;4982804;28;20193;-78
2022/06/01 06:56:00;;;;;;;2.85;2.30;;;;;;;32.89;51.42;100079.97;4984667;28;20177;-77
2022/06/01 06:58:27;;;;;;;3.80;2.22;;;;;;;32.85;51.40;100073.25;4987981;28;20557;-78
2022/06/01 07:00:52;;;;;;;2.50;2.28;;;;;;;32.79;51.27;100071.22;4991154;28;20211;-78
2022/06/01 07:03:18;;;;;;;2.65;2.20;;;;;;;32.50;51.75;100083.19;4990133;28;20186;-78
2022/06/01 07:08:29;;;;;;;3.90;2.42;;;;;;;32.45;51.89;100074.78;4982492;28;20272;-78
2022/06/01 07:10:55;;;;;;;3.05;2.15;;;;;;;32.12;52.37;100077.28;4991149;28;20177;-78
2022/06/01 07:13:24;;;;;;;2.17;1.90;;;;;;;32.12;52.48;100079.97;4983263;28;20191;-78
2022/06/01 07:16:11;;;;;;;1.90;1.80;;;;;;;32.18;52.93;100076.66;4980922;28;20213;-76
2022/06/01 07:18:38;;;;;;;2.08;1.60;;;;;;;32.19;52.85;100073.81;4984785;28;20192;-76
2022/06/01 07:21:04;;;;;;;3.65;1.90;;;;;;;32.15;52.26;100085.84;4987976;28;20779;-77
2022/06/01 07:23:29;;;;;;;1.92;1.77;;;;;;;32.03;52.14;100079.09;4987419;28;20272;-75
2022/06/01 07:25:55;;;;;;;3.40;2.13;;;;;;;31.85;51.77;100081.84;4986898;28;20213;-75
2022/06/01 07:28:22;;;;;;;2.53;2.10;;;;;;;31.53;52.33;100085.94;4986889;28;20550;-75
2022/06/01 07:30:50;;;;;;;2.70;1.90;;;;;;;31.42;52.21;100079.84;5016665;28;20208;-75
2022/06/01 07:33:19;;;;;;;1.53;1.43;;;;;;;31.37;52.50;100079.47;4989531;28;20193;-75
2022/06/01 07:35:44;;;;;;;2.43;1.90;;;;;;;31.34;51.82;100078.94;5001503;28;20169;-76
2022/06/01 07:43:40;;;;;;;1.20;1.00;;;;;;;30.92;50.81;100081.22;4987723;28;20188;-77
2022/06/01 07:46:05;;;;;;;2.40;1.50;;;;;;;30.78;50.33;100081.72;4994492;28;20747;-76
2022/06/01 07:48:32;;;;;;;1.63;1.30;;;;;;;30.62;50.10;100087.72;4981875;28;20770;-75
2022/06/01 07:50:58;;;;;;;1.87;1.70;;;;;;;30.46;50.42;100081.16;4985574;28;20184;-75
2022/06/01 07:53:24;;;;;;;1.70;1.60;;;;;;;30.27;50.96;100087.44;4986097;28;20185;-75
2022/06/01 07:55:49;;;;;;;1.63;1.53;;;;;;;30.04;51.45;100079.78;4986273;28;20180;-75
2022/06/01 07:58:14;;;;;;;3.10;1.70;;;;;;;29.83;51.53;100074.63;5006015;28;20181;-75
2022/06/01 08:00:40;;;;;;;2.57;1.60;;;;;;;29.63;51.63;100073.84;4993047;28;20200;-75
2022/06/01 08:03:12;;;;;;;1.70;1.60;;;;;;;29.43;51.71;100073.03;4986883;28;20195;-76
2022/06/01 08:05:38;;;;;;;2.23;1.60;;;;;;;29.18;51.77;100069.94;4990591;28;20226;-76
2022/06/01 08:08:03;;;;;;;1.83;1.50;;;;;;;28.96;52.43;100076.38;4988016;28;20204;-75
2022/06/01 08:10:29;;;;;;;1.97;1.33;;;;;;;28.76;52.75;100079.00;4987487;28;20209;-75
2022/06/01 08:13:06;;;;;;;2.60;1.60;;;;;;;28.58;53.06;100084.13;4986370;28;20181;-75
2022/06/01 08:15:40;;;;;;;2.40;1.80;;;;;;;28.32;53.28;100087.22;4987111;28;20193;-74
2022/06/01 08:18:05;;;;;;;2.13;1.87;;;;;;;28.10;53.34;100089.13;4990390;28;20411;-75
2022/06/01 08:20:31;;;;;;;3.07;1.93;;;;;;;27.88;54.16;100089.22;4982140;28;20373;-75
2022/06/01 08:22:58;;;;;;;1.90;1.53;;;;;;;27.64;54.17;100087.69;4995398;28;20192;-75
2022/06/01 08:25:24;;;;;;;5.77;1.83;;;;;;;27.44;54.29;100094.66;4985359;28;20173;-75
2022/06/01 08:27:51;;;;;;;3.17;1.60;;;;;;;27.28;55.00;100092.41;4986034;28;20978;-75
2022/06/01 08:30:19;;;;;;;2.63;1.80;;;;;;;27.04;54.80;100096.94;4988515;28;20204;-77
2022/06/01 08:32:45;;;;;;;2.00;1.80;;;;;;;26.83;55.18;100096.06;4990306;28;20275;-77
2022/06/01 08:35:13;;;;;;;2.30;1.80;;;;;;;26.67;55.42;100099.06;4979035;28;20276;-77
2022/06/01 08:37:38;;;;;;;2.10;1.73;;;;;;;26.48;55.17;100096.06;4982222;28;20224;-76
2022/06/01 08:40:05;;;;;;;3.33;1.97;;;;;;;26.27;55.76;100103.03;4984976;28;20209;-76
2022/06/01 08:42:32;;;;;;;2.00;1.80;;;;;;;26.08;56.37;100099.16;4988713;28;20199;-77
2022/06/01 08:45:07;;;;;;;2.77;2.33;;;;;;;25.91;56.79;100097.78;4985676;28;20247;-77
2022/06/01 08:47:38;;;;;;;3.07;2.03;;;;;;;25.71;57.44;100104.63;4984795;28;20579;-77
2022/06/01 08:50:10;;;;;;;2.47;1.90;;;;;;;25.49;57.94;100105.41;4987237;28;20255;-76
2022/06/01 08:52:36;;;;;;;1.87;1.70;;;;;;;25.34;58.02;100105.56;4982681;28;20589;-77
2022/06/01 08:55:01;;;;;;;1.93;1.70;;;;;;;25.25;58.02;100112.38;4979524;28;20193;-77
2022/06/01 08:57:43;;;;;;;2.40;1.90;;;;;;;25.13;57.54;100117.72;4983953;28;20177;-77
2022/06/01 09:00:14;;;;;;;2.37;1.70;;;;;;;24.98;57.90;100112.56;4986460;28;20288;-78
2022/06/01 09:02:45;;;;;;;2.33;1.50;;;;;;;24.90;58.36;100112.31;4987233;28;20185;-78
2022/06/01 09:05:20;;;;;;;2.80;1.60;;;;;;;24.83;58.79;100109.25;4983122;28;20228;-76
2022/06/01 09:08:05;;;;;;;2.63;1.97;;;;;;;24.79;59.32;100110.41;4985807;28;20235;-78
2022/06/01 09:10:30;;;;;;;2.07;1.90;;;;;;;24.75;59.33;100108.94;4988289;28;20247;-78
2022/06/01 09:13:06;;;;;;;2.47;1.70;;;;;;;24.71;58.80;100113.63;4987639;28;20181;-78
2022/06/01 09:15:49;;;;;;;2.57;1.70;;;;;;;24.68;58.78;100099.72;4979764;28;20251;-78
2022/06/01 09:18:18;;;;;;;1.97;1.77;;;;;;;24.68;58.34;100102.38;4982343;28;20591;-76
2022/06/01 09:23:28;;;;;;;2.23;2.00;;;;;;;24.71;58.49;100115.44;4969087;28;20208;-74
2022/06/01 09:25:55;;;;;;;1.67;1.40;;;;;;;24.66;58.56;100113.91;4974050;28;20916;-75
2022/06/01 09:28:25;;;;;;;1.60;1.50;;;;;;;24.66;58.53;100107.75;4987424;28;20274;-74
2022/06/01 09:30:55;;;;;;;2.00;1.60;;;;;;;24.60;57.65;100111.69;4983118;28;20206;-77
2022/06/01 09:33:28;;;;;;;2.17;1.67;;;;;;;24.63;58.34;100121.22;4985736;28;20197;-75
2022/06/01 09:36:20;;;;;;;2.03;1.93;;;;;;;24.66;58.58;100108.63;4987321;28;20252;-74
2022/06/01 09:39:01;;;;;;;2.13;1.63;;;;;;;24.69;58.47;100112.00;4984128;28;20197;-76
2022/06/01 09:41:31;;;;;;;1.70;1.60;;;;;;;24.63;58.06;100108.84;4985897;28;20173;-75
2022/06/01 09:44:07;;;;;;;2.03;1.57;;;;;;;24.61;58.05;100104.63;4984879;28;20208;-76
2022/06/01 09:46:47;;;;;;;2.40;1.73;;;;;;;24.67;57.79;100109.47;4984124;28;20213;-76
2022/06/01 09:49:31;;;;;;;2.47;1.80;;;;;;;24.64;58.11;100099.94;4983780;28;20209;-76
2022/06/01 09:52:12;;;;;;;1.60;1.50;;;;;;;24.69;58.74;100109.38;4978688;28;20185;-76
2022/06/01 09:54:44;;;;;;;1.73;1.50;;;;;;;24.71;58.26;100095.09;4987210;28;20864;-78
2022/06/01 09:57:27;;;;;;;3.83;1.60;;;;;;;24.71;58.50;100099.56;4987208;28;20169;-76
2022/06/01 10:08:23;;;;;;;2.73;1.63;;;;;;;24.69;57.92;100096.13;4987272;28;20267;-76
2022/06/01 10:11:05;;;;;;;4.43;1.90;;;;;;;24.74;58.34;100091.38;4992441;28;20637;-78
2022/06/01 10:13:38;;;;;;;2.33;1.43;;;;;;;24.84;58.32;100095.06;4994867;28;20196;-78
2022/06/01 10:16:18;;;;;;;2.00;1.70;;;;;;;24.91;58.59;100095.47;4985680;28;20602;-77
2022/06/01 10:18:47;;;;;;;1.80;1.70;;;;;;;24.96;58.22;100094.16;4990479;28;20264;-77
2022/06/01 10:21:17;;;;;;;3.23;1.80;;;;;;;25.03;58.19;100091.91;4988439;28;20180;-75
2022/06/01 10:23:48;;;;;;;3.53;1.63;;;;;;;25.08;58.61;100091.56;4986116;28;20186;-75
2022/06/01 10:26:20;;;;;;;2.00;1.77;;;;;;;25.14;58.32;100090.28;4988382;28;20227;-76
2022/06/01 10:28:52;;;;;;;2.07;1.73;;;;;;;25.18;58.72;100083.81;4988234;28;20585;-75
2022/06/01 10:31:37;;;;;;;2.80;1.63;;;;;;;25.22;58.51;100094.06;4993266;28;20181;-75
2022/06/01 10:34:40;;;;;;;2.20;1.70;;;;;;;25.31;58.33;100089.06;4989811;28;20566;-77
2022/06/01 10:37:05;;;;;;;1.93;1.80;;;;;;;25.41;58.67;100084.75;4986394;28;20709;-76
2022/06/01 10:39:47;;;;;;;2.00;1.80;;;;;;;25.49;57.90;100087.69;4993154;28;20673;-77
2022/06/01 10:42:22;;;;;;;1.63;1.53;;;;;;;25.59;57.91;100081.72;4989956;28;20189;-77
2022/06/01 10:45:13;;;;;;;2.80;1.53;;;;;;;25.69;57.45;100088.84;4990271;28;20185;-76
2022/06/01 10:48:05;;;;;;;3.87;1.90;;;;;;;25.80;56.56;100084.53;4987295;28;20240;-78
2022/06/01 10:50:37;;;;;;;2.13;1.50;;;;;;;25.77;56.42;100090.91;4986227;28;20244;-77
2022/06/01 10:53:13;;;;;;;1.73;1.50;;;;;;;25.82;56.09;100086.09;4985531;28;20735;-75
2022/06/01 10:55:44;;;;;;;3.60;2.23;;;;;;;25.79;56.13;100093.44;4988776;28;20712;-77
2022/06/01 10:58:21;;;;;;;3.17;2.00;;;;;;;25.52;56.52;100087.47;4981416;28;20196;-77
2022/06/01 11:00:46;;;;;;;1.83;1.73;;;;;;;25.39;57.07;100086.66;4980351;28;20209;-77
2022/06/01 11:03:27;;;;;;;3.23;1.70;;;;;;;25.52;56.44;100091.94;4987683;28;20565;-77
2022/06/01 11:06:04;;;;;;;1.93;1.70;;;;;;;25.64;55.80;100095.47;4986132;28;20571;-77
2022/06/01 11:08:52;;;;;;;2.30;1.40;;;;;;;25.71;55.94;100091.38;4989007;28;20251;-76
2022/06/01 11:11:54;;;;;;;2.60;1.43;;;;;;;25.67;55.80;100084.59;4989510;28;20193;-76
2022/06/01 11:15:05;;;;;;;1.50;1.40;;;;;;;25.78;55.26;100076.72;4983593;28;20208;-77
2022/06/01 11:17:46;;;;;;;2.07;1.50;;;;;;;25.86;55.04;100074.31;4985435;28;20271;-73
2022/06/01 11:20:40;;;;;;;2.67;1.37;;;;;;;25.98;54.87;100085.78;4985834;28;20247;-73
2022/06/01 11:23:17;;;;;;;3.23;1.60;;;;;;;26.09;55.07;100074.31;4986778;28;20193;-73
2022/06/01 11:26:01;;;;;;;3.17;1.57;;;;;;;26.16;54.34;100080.03;4979197;28;20421;-76
2022/06/01 11:28:45;;;;;;;3.20;1.63;;;;;;;26.17;54.36;100068.44;5017454;28;20216;-75
2022/06/01 11:31:24;;;;;;;4.53;1.50;;;;;;;26.23;54.46;100064.50;5006932;28;20236;-75
2022/06/01 11:33:52;;;;;;;1.10;1.00;;;;;;;26.19;54.65;100060.38;4994579;28;20188;-78
2022/06/01 11:36:44;;;;;;;1.20;1.00;;;;;;;26.04;54.16;100063.25;4986227;28;20243;-77
2022/06/01 11:39:09;;;;;;;1.93;1.20;;;;;;;25.99;53.94;100058.31;4986008;28;20211;-77
2022/06/01 11:41:39;;;;;;;2.00;1.20;;;;;;;26.00;53.68;100062.63;4987250;28;20181;-77
2022/06/01 11:44:20;;;;;;;3.33;1.57;;;;;;;25.99;53.28;100057.44;4979452;28;20185;-77
2022/06/01 11:46:53;;;;;;;1.97;1.53;;;;;;;26.07;53.17;100062.16;4999394;28;20205;-77
2022/06/01 11:49:35;;;;;;;4.10;1.70;;;;;;;26.15;53.62;100065.09;4986173;28;20213;-77
2022/06/01 11:52:24;;;;;;;3.53;1.50;;;;;;;26.14;53.72;100071.34;4979547;28;20189;-76
2022/06/01 11:55:10;;;;;;;1.70;1.37;;;;;;;26.07;52.64;100055.06;4986548;28;20208;-77
2022/06/01 11:57:47;;;;;;;2.87;1.10;;;;;;;26.12;52.26;100054.72;4999114;28;20177;-77
2022/06/01 12:00:30;;;;;;;1.80;1.20;;;;;;;26.16;51.44;100061.47;4984244;28;20295;-77
2022/06/01 12:03:15;;;;;;;2.93;1.10;;;;;;;26.08;51.88;100064.69;4988155;28;20188;-77
2022/06/01 12:05:59;;;;;;;3.67;1.70;;;;;;;26.05;51.37;100064.94;4994131;28;20698;-77
2022/06/01 12:08:33;;;;;;;2.53;1.43;;;;;;;26.12;51.41;100060.84;4989031;28;20189;-77